Beirut, Lebanon
Current Conditions -  °F | °C
As of 11:00 AM on Saturday 25 Oct 2014 (Local Time) from OLBA Reporting Station
Haze Haze  
Wind Chill: 77°   Ceiling: Unl
Heat Index: 79°   Visibility: 3mi
Dew Point: 59°   Wind: 5mph
Humidity: 54%   Direction: 270°W
Pressure: 30.03"   Gusts: NA
Location:  33.89°N, 35.51°E
Report Text: OLBA 250800Z 27004KT 5000 HZ SKC 25/15 Q1017
Loading
Personal Weather Stations






























Interactive Weather Map
Tropical Storm Tracking
New forecast layout! Learn more

10-Day Weather Forecast

Advertisements
Track Severe Weather on mobile